createdAt,value
2023-01-17T00:02:26.298Z,4.30
2023-01-17T00:05:11.278Z,5.53
2023-01-17T00:07:55.960Z,4.05
2023-01-17T00:10:25.664Z,3.00
2023-01-17T00:12:57.747Z,3.53
2023-01-17T00:15:25.013Z,4.57
2023-01-17T00:17:52.578Z,5.55
2023-01-17T00:20:46.297Z,2.60
2023-01-17T00:23:42.579Z,3.33
2023-01-17T00:26:16.687Z,5.15
2023-01-17T00:28:44.359Z,2.97
2023-01-17T00:31:13.012Z,4.18
2023-01-17T00:33:39.752Z,4.10
2023-01-17T00:36:06.637Z,3.28
2023-01-17T00:38:36.133Z,4.32
2023-01-17T00:41:05.089Z,4.88
2023-01-17T00:43:50.085Z,2.78
2023-01-17T00:46:36.037Z,5.22
2023-01-17T00:49:21.264Z,2.15
2023-01-17T00:52:06.112Z,4.45
2023-01-17T00:54:50.896Z,4.43
2023-01-17T00:57:35.661Z,2.75
2023-01-17T01:00:20.531Z,2.70
2023-01-17T01:03:05.281Z,3.85
2023-01-17T01:05:50.578Z,2.80
2023-01-17T01:08:44.763Z,3.83
2023-01-17T01:11:33.122Z,2.00
2023-01-17T01:14:19.382Z,4.65
2023-01-17T01:17:04.866Z,3.53
2023-01-17T01:19:49.866Z,2.47
2023-01-17T01:22:34.700Z,3.17
2023-01-17T01:25:20.003Z,4.00
2023-01-17T01:28:05.258Z,2.20
2023-01-17T01:30:50.659Z,4.63
2023-01-17T01:33:19.944Z,4.03
2023-01-17T01:35:49.248Z,2.75
2023-01-17T01:38:16.736Z,2.33
2023-01-17T01:40:45.661Z,5.25
2023-01-17T01:43:14.249Z,2.30
2023-01-17T01:45:44.573Z,2.80
2023-01-17T01:48:24.836Z,2.17
2023-01-17T01:50:51.655Z,3.63
2023-01-17T01:53:20.152Z,2.85
2023-01-17T01:55:49.416Z,4.32
2023-01-17T01:58:24.657Z,2.75
2023-01-17T02:00:51.421Z,2.08
2023-01-17T02:03:23.368Z,3.83
2023-01-17T02:06:28.958Z,3.42
2023-01-17T02:08:58.776Z,3.30
2023-01-17T02:11:25.468Z,2.97
2023-01-17T02:13:51.906Z,3.00
2023-01-17T02:16:21.222Z,6.75
2023-01-17T02:19:05.555Z,3.70
2023-01-17T02:24:07.181Z,3.38
2023-01-17T02:27:01.201Z,3.88
2023-01-17T02:30:05.145Z,4.43
2023-01-17T02:32:59.927Z,3.22
2023-01-17T02:35:47.248Z,2.90
2023-01-17T02:38:25.258Z,2.80
2023-01-17T02:41:07.644Z,3.53
2023-01-17T02:43:35.997Z,6.20
2023-01-17T02:46:02.678Z,3.58
2023-01-17T02:48:32.293Z,4.38
2023-01-17T02:51:10.728Z,5.35
2023-01-17T02:54:21.712Z,5.25
2023-01-17T02:57:05.376Z,4.68
2023-01-17T02:59:50.136Z,5.15
2023-01-17T03:02:21.729Z,5.05
2023-01-17T03:05:06.512Z,6.25
2023-01-17T03:07:33.955Z,6.30
2023-01-17T03:10:04.877Z,5.93
2023-01-17T03:12:35.477Z,6.60
2023-01-17T03:15:02.021Z,6.68
2023-01-17T03:17:32.513Z,7.15
2023-01-17T03:19:59.103Z,7.22
2023-01-17T03:22:25.548Z,6.00
2023-01-17T03:24:52.037Z,6.07
2023-01-17T03:27:18.437Z,7.60
2023-01-17T03:29:44.875Z,6.10
2023-01-17T03:32:11.406Z,6.75
2023-01-17T03:34:37.808Z,6.60
2023-01-17T03:37:04.219Z,7.10
2023-01-17T03:39:30.665Z,6.68
2023-01-17T03:41:57.120Z,6.32
2023-01-17T03:44:23.588Z,6.72
2023-01-17T03:46:50.016Z,6.47
2023-01-17T03:49:16.765Z,6.22
2023-01-17T03:51:43.305Z,6.70
2023-01-17T03:54:09.713Z,7.13
2023-01-17T03:56:36.274Z,7.72
2023-01-17T03:59:02.776Z,7.82
2023-01-17T04:01:29.318Z,9.30
2023-01-17T04:03:55.745Z,9.32
2023-01-17T04:06:22.217Z,10.07
2023-01-17T04:08:48.721Z,11.25
2023-01-17T04:11:15.121Z,10.95
2023-01-17T04:13:41.524Z,10.10
2023-01-17T04:16:13.166Z,10.57
2023-01-17T04:18:39.753Z,10.80
2023-01-17T04:21:07.648Z,11.07
2023-01-17T04:23:35.853Z,10.38
2023-01-17T04:26:03.542Z,9.80
2023-01-17T04:28:31.673Z,10.70
2023-01-17T04:30:59.645Z,9.65
2023-01-17T04:33:26.340Z,9.52
2023-01-17T04:35:53.479Z,9.73
2023-01-17T04:38:20.162Z,8.25
2023-01-17T04:40:46.674Z,10.00
2023-01-17T04:43:13.054Z,8.68
2023-01-17T04:45:39.678Z,8.77
2023-01-17T04:48:06.533Z,8.02
2023-01-17T04:50:34.706Z,7.75
2023-01-17T04:53:01.152Z,8.05
2023-01-17T04:55:27.560Z,7.05
2023-01-17T04:57:54.538Z,7.50
2023-01-17T05:00:24.082Z,7.80
2023-01-17T05:02:52.009Z,6.57
2023-01-17T05:05:18.676Z,8.30
2023-01-17T05:07:52.997Z,7.85
2023-01-17T05:10:19.389Z,7.35
2023-01-17T05:12:56.320Z,7.28
2023-01-17T05:15:23.313Z,7.20
2023-01-17T05:17:51.824Z,7.30
2023-01-17T05:20:19.416Z,6.70
2023-01-17T05:22:47.347Z,5.70
2023-01-17T05:25:13.838Z,6.10
2023-01-17T05:27:40.275Z,6.28
2023-01-17T05:30:07.137Z,5.07
2023-01-17T05:32:33.592Z,5.97
2023-01-17T05:35:00.050Z,6.80
2023-01-17T05:37:26.489Z,5.25
2023-01-17T05:39:52.902Z,5.32
2023-01-17T05:42:19.333Z,4.35
2023-01-17T05:44:45.874Z,4.13
2023-01-17T05:47:12.290Z,4.43
2023-01-17T05:49:38.893Z,3.70
2023-01-17T05:52:05.366Z,5.05
2023-01-17T05:54:31.805Z,4.00
2023-01-17T05:56:58.196Z,3.10
2023-01-17T05:59:36.444Z,2.33
2023-01-17T06:02:03.588Z,3.90
2023-01-17T06:04:30.047Z,2.72
2023-01-17T06:06:56.579Z,3.05
2023-01-17T06:09:23.097Z,2.45
2023-01-17T06:11:49.531Z,2.97
2023-01-17T06:14:15.978Z,3.55
2023-01-17T06:16:42.492Z,1.92
2023-01-17T06:19:09.431Z,1.70
2023-01-17T06:21:35.862Z,1.90
2023-01-17T06:24:04.102Z,2.10
2023-01-17T06:26:30.765Z,2.75
2023-01-17T06:28:57.199Z,2.00
2023-01-17T06:31:23.726Z,1.40
2023-01-17T06:33:50.161Z,1.23
2023-01-17T06:36:16.593Z,2.88
2023-01-17T06:38:42.985Z,1.92
2023-01-17T06:41:09.722Z,1.85
2023-01-17T06:43:36.195Z,0.90
2023-01-17T06:46:02.642Z,2.10
2023-01-17T06:48:29.157Z,1.52
2023-01-17T06:50:57.660Z,2.00
2023-01-17T06:53:24.170Z,4.45
2023-01-17T06:55:50.953Z,2.42
2023-01-17T06:58:17.349Z,2.28
2023-01-17T07:00:44.518Z,1.30
2023-01-17T07:03:25.183Z,2.03
2023-01-17T07:05:52.952Z,1.95
2023-01-17T07:08:19.916Z,2.03
2023-01-17T07:10:47.509Z,2.40
2023-01-17T07:13:14.396Z,1.98
2023-01-17T07:15:41.081Z,3.35
2023-01-17T07:18:07.529Z,3.50
2023-01-17T07:20:34.051Z,5.63
2023-01-17T07:23:00.428Z,5.85
2023-01-17T07:25:27.849Z,5.75
2023-01-17T07:27:57.370Z,5.80
2023-01-17T07:30:24.752Z,5.88
2023-01-17T07:32:53.352Z,3.63
2023-01-17T07:35:20.379Z,3.60
2023-01-17T07:37:48.637Z,2.75
2023-01-17T07:40:17.497Z,4.47
2023-01-17T07:42:44.689Z,6.63
2023-01-17T07:45:12.825Z,5.28
2023-01-17T07:47:39.390Z,5.10
2023-01-17T07:50:07.395Z,6.50
2023-01-17T07:52:33.820Z,4.80
2023-01-17T07:55:00.288Z,7.78
2023-01-17T07:57:27.547Z,8.73
2023-01-17T07:59:54.002Z,5.45
2023-01-17T08:02:22.963Z,7.15
2023-01-17T08:04:49.668Z,6.05
2023-01-17T08:07:16.744Z,5.43
2023-01-17T08:09:44.023Z,10.32
2023-01-17T08:12:10.509Z,8.38
2023-01-17T08:14:36.943Z,3.72
2023-01-17T08:17:07.882Z,7.03
2023-01-17T08:19:34.345Z,3.67
2023-01-17T08:22:00.816Z,7.45
2023-01-17T08:24:27.266Z,3.15
2023-01-17T08:26:55.515Z,3.53
2023-01-17T08:29:22.815Z,4.72
2023-01-17T08:31:49.618Z,3.75
2023-01-17T08:34:16.479Z,4.57
2023-01-17T08:36:42.937Z,5.97
2023-01-17T08:39:09.819Z,2.08
2023-01-17T08:41:36.314Z,4.28
2023-01-17T08:44:03.179Z,3.42
2023-01-17T08:46:32.073Z,6.85
2023-01-17T08:48:59.979Z,5.53
2023-01-17T08:51:27.730Z,4.20
2023-01-17T08:53:55.578Z,3.50
2023-01-17T08:56:23.936Z,5.05
2023-01-17T08:58:50.333Z,3.25
2023-01-17T09:01:16.849Z,4.05
2023-01-17T09:03:43.659Z,8.20
2023-01-17T09:06:13.340Z,3.85
2023-01-17T09:08:40.595Z,5.40
2023-01-17T09:11:09.491Z,5.43
2023-01-17T09:13:36.445Z,5.43
2023-01-17T09:16:03.237Z,7.00
2023-01-17T09:18:31.179Z,4.82
2023-01-17T09:20:59.318Z,7.35
2023-01-17T09:23:27.762Z,8.30
2023-01-17T09:25:55.543Z,7.00
2023-01-17T09:28:22.653Z,5.70
2023-01-17T09:30:49.478Z,7.60
2023-01-17T09:33:16.230Z,12.00
2023-01-17T09:35:42.778Z,5.40
2023-01-17T09:38:09.370Z,10.27
2023-01-17T09:40:38.580Z,9.65
2023-01-17T09:43:11.953Z,12.75
2023-01-17T09:45:38.785Z,6.20
2023-01-17T09:48:14.319Z,8.00
2023-01-17T09:50:50.713Z,8.85
2023-01-17T09:53:20.804Z,9.93
2023-01-17T09:55:56.050Z,9.10
2023-01-17T09:59:03.552Z,10.65
2023-01-17T10:01:35.764Z,7.55
2023-01-17T10:04:38.274Z,10.93
2023-01-17T10:07:19.498Z,9.18
2023-01-17T10:10:11.264Z,9.75
2023-01-17T10:13:28.499Z,12.30
2023-01-17T10:16:28.474Z,11.57
2023-01-17T10:19:20.538Z,9.35
2023-01-17T10:22:18.575Z,9.70
2023-01-17T10:25:09.116Z,8.80
2023-01-17T10:27:40.844Z,10.18
2023-01-17T10:30:18.114Z,8.95
2023-01-17T10:32:48.931Z,10.40
2023-01-17T10:35:20.965Z,8.13
2023-01-17T10:37:49.907Z,6.40
2023-01-17T10:40:23.086Z,10.52
2023-01-17T10:43:00.985Z,10.43
2023-01-17T10:45:28.967Z,7.78
2023-01-17T10:48:15.360Z,8.50
2023-01-17T10:51:00.919Z,9.38
2023-01-17T10:53:44.111Z,8.82
2023-01-17T10:56:14.766Z,7.55
2023-01-17T10:58:41.261Z,5.80
2023-01-17T11:01:18.137Z,7.55
2023-01-17T11:03:50.582Z,6.78
2023-01-17T11:06:18.893Z,6.63
2023-01-17T11:08:53.612Z,8.20
2023-01-17T11:11:23.443Z,7.25
2023-01-17T11:13:52.151Z,8.95
2023-01-17T11:16:21.705Z,5.88
2023-01-17T11:19:05.117Z,10.20
2023-01-17T11:21:32.712Z,9.02
2023-01-17T11:24:10.178Z,8.50
2023-01-17T11:26:38.405Z,10.05
2023-01-17T11:29:16.094Z,7.80
2023-01-17T11:31:43.553Z,7.57
2023-01-17T11:34:24.950Z,8.55
2023-01-17T11:37:18.211Z,8.80
2023-01-17T11:39:48.041Z,7.50
2023-01-17T11:42:35.171Z,7.72
2023-01-17T11:45:26.970Z,9.77
2023-01-17T11:48:08.717Z,11.07
2023-01-17T11:50:38.649Z,6.45
2023-01-17T11:53:25.371Z,6.18
2023-01-17T11:56:18.796Z,9.10
2023-01-17T11:58:47.130Z,9.05
2023-01-17T12:01:50.794Z,5.55
2023-01-17T12:04:24.161Z,9.05
2023-01-17T12:07:17.212Z,11.43
2023-01-17T12:10:15.418Z,7.20
2023-01-17T12:13:07.614Z,7.70
2023-01-17T12:15:47.464Z,5.40
2023-01-17T12:18:22.069Z,8.60
2023-01-17T12:21:01.652Z,5.82
2023-01-17T12:24:13.874Z,10.57
2023-01-17T12:26:44.062Z,4.07
2023-01-17T12:29:34.514Z,8.52
2023-01-17T12:32:38.262Z,5.32
2023-01-17T12:35:18.656Z,7.13
2023-01-17T12:38:03.762Z,7.15
2023-01-17T12:40:46.689Z,5.47
2023-01-17T12:43:39.504Z,6.65
2023-01-17T12:46:21.189Z,4.28
2023-01-17T12:48:52.040Z,5.25
2023-01-17T12:51:27.626Z,4.95
2023-01-17T12:54:09.390Z,4.68
2023-01-17T12:56:42.657Z,3.40
2023-01-17T12:59:20.114Z,3.42
2023-01-17T13:01:57.681Z,5.97
2023-01-17T13:04:29.488Z,5.45
2023-01-17T13:06:58.946Z,7.13
2023-01-17T13:09:33.066Z,5.90
2023-01-17T13:12:19.965Z,6.60
2023-01-17T13:14:47.173Z,5.43
2023-01-17T13:17:22.616Z,7.60
2023-01-17T13:20:03.010Z,6.68
2023-01-17T13:22:31.988Z,6.85
2023-01-17T13:25:15.021Z,5.68
2023-01-17T13:28:23.391Z,7.97
2023-01-17T13:31:18.517Z,7.93
2023-01-17T13:34:22.645Z,4.68
2023-01-17T13:37:15.869Z,6.80
2023-01-17T13:40:03.276Z,3.65
2023-01-17T13:42:48.180Z,6.75
2023-01-17T13:45:20.930Z,6.35
2023-01-17T13:47:47.818Z,8.05
2023-01-17T13:50:36.159Z,10.00
2023-01-17T13:53:33.709Z,9.48
2023-01-17T13:56:18.467Z,9.52
2023-01-17T13:58:49.939Z,10.10
2023-01-17T14:01:22.715Z,10.20
2023-01-17T14:03:49.219Z,9.95
2023-01-17T14:06:35.445Z,11.70
2023-01-17T14:09:07.819Z,9.95
2023-01-17T14:11:52.224Z,8.15
2023-01-17T14:14:40.364Z,6.85
2023-01-17T14:17:16.218Z,8.50
2023-01-17T14:19:48.106Z,7.13
2023-01-17T14:22:20.239Z,10.55
2023-01-17T14:25:19.962Z,7.70
2023-01-17T14:27:49.987Z,4.63
2023-01-17T14:30:25.626Z,11.38
2023-01-17T14:33:01.285Z,6.78
2023-01-17T14:35:49.787Z,5.88
2023-01-17T14:38:21.677Z,5.68
2023-01-17T14:41:04.835Z,4.45
2023-01-17T14:43:35.240Z,7.93
2023-01-17T14:46:05.354Z,5.53
2023-01-17T14:48:31.777Z,6.97
2023-01-17T14:51:01.788Z,6.40
2023-01-17T14:53:30.562Z,6.47
2023-01-17T14:56:02.498Z,4.95
2023-01-17T14:58:34.880Z,7.85
2023-01-17T15:01:07.061Z,6.53
2023-01-17T15:03:44.113Z,6.97
2023-01-17T15:06:16.255Z,7.20
2023-01-17T15:08:42.925Z,8.15
2023-01-17T15:11:16.631Z,7.50
2023-01-17T15:13:46.920Z,6.15
2023-01-17T15:16:31.015Z,8.85
2023-01-17T15:18:57.599Z,8.77
2023-01-17T15:21:29.562Z,7.70
2023-01-17T15:24:01.285Z,9.57
2023-01-17T15:26:33.265Z,7.47
2023-01-17T15:29:11.357Z,7.00
2023-01-17T15:31:44.628Z,6.60
2023-01-17T15:34:27.018Z,7.85
2023-01-17T15:36:57.827Z,5.43
2023-01-17T15:39:30.544Z,9.70
2023-01-17T15:42:04.639Z,6.15
2023-01-17T15:44:47.483Z,10.70
2023-01-17T15:47:37.499Z,9.18
2023-01-17T15:50:29.896Z,9.43
2023-01-17T15:53:00.351Z,10.10
2023-01-17T15:55:32.979Z,7.63
2023-01-17T15:57:59.952Z,7.05
2023-01-17T16:00:32.620Z,6.53
2023-01-17T16:02:59.727Z,7.93
2023-01-17T16:05:31.174Z,9.77
2023-01-17T16:08:22.886Z,7.10
2023-01-17T16:10:54.699Z,7.70
2023-01-17T16:13:21.793Z,10.02
2023-01-17T16:15:48.645Z,8.68
2023-01-17T16:18:19.227Z,7.05
2023-01-17T16:20:49.730Z,10.00
2023-01-17T16:23:17.138Z,8.93
2023-01-17T16:25:44.435Z,9.30
2023-01-17T16:28:10.847Z,9.52
2023-01-17T16:30:37.718Z,9.13
2023-01-17T16:33:04.479Z,9.95
2023-01-17T16:35:33.873Z,9.52
2023-01-17T16:38:06.072Z,9.10
2023-01-17T16:40:38.714Z,11.95
2023-01-17T16:43:05.145Z,8.77
2023-01-17T16:45:38.873Z,8.73
2023-01-17T16:48:05.636Z,11.20
2023-01-17T16:50:32.299Z,11.90
2023-01-17T16:52:58.729Z,12.80
2023-01-17T16:55:25.782Z,12.00
2023-01-17T16:57:56.003Z,10.38
2023-01-17T17:00:22.815Z,12.48
2023-01-17T17:02:50.627Z,11.40
2023-01-17T17:05:17.675Z,13.20
2023-01-17T17:07:45.485Z,13.48
2023-01-17T17:10:14.385Z,10.27
2023-01-17T17:12:41.782Z,13.02
2023-01-17T17:15:10.111Z,11.27
2023-01-17T17:17:37.354Z,9.35
2023-01-17T17:20:05.306Z,12.13
2023-01-17T17:22:32.465Z,10.48
2023-01-17T17:24:59.172Z,8.02
2023-01-17T17:27:27.616Z,11.30
2023-01-17T17:29:54.007Z,10.48
2023-01-17T17:32:21.235Z,12.45
2023-01-17T17:34:48.046Z,12.55
2023-01-17T17:37:17.403Z,11.85
2023-01-17T17:39:45.149Z,15.35
2023-01-17T17:42:12.226Z,9.75
2023-01-17T17:44:38.612Z,13.95
2023-01-17T17:47:05.037Z,12.13
2023-01-17T17:49:31.507Z,11.82
2023-01-17T17:52:05.807Z,13.65
2023-01-17T17:54:33.085Z,15.02
2023-01-17T17:56:59.702Z,15.77
2023-01-17T17:59:26.521Z,10.05
2023-01-17T18:01:53.190Z,13.32
2023-01-17T18:04:21.512Z,12.07
2023-01-17T18:06:47.944Z,11.15
2023-01-17T18:09:14.479Z,13.13
2023-01-17T18:11:42.124Z,14.40
2023-01-17T18:14:12.469Z,11.15
2023-01-17T18:16:43.871Z,13.10
2023-01-17T18:19:17.016Z,11.60
2023-01-17T18:21:43.978Z,12.63
2023-01-17T18:24:13.541Z,15.60
2023-01-17T18:26:58.284Z,11.77
2023-01-17T18:29:27.027Z,12.45
2023-01-17T18:31:54.651Z,11.30
2023-01-17T18:34:24.564Z,12.05
2023-01-17T18:36:51.733Z,12.18
2023-01-17T18:39:20.936Z,14.40
2023-01-17T18:41:47.428Z,13.65
2023-01-17T18:44:14.004Z,14.80
2023-01-17T18:46:42.035Z,14.70
2023-01-17T18:49:12.699Z,14.40
2023-01-17T18:51:39.195Z,13.75
2023-01-17T18:54:07.379Z,16.23
2023-01-17T18:56:35.223Z,16.52
2023-01-17T18:59:02.860Z,15.48
2023-01-17T19:01:33.013Z,14.63
2023-01-17T19:04:02.271Z,19.63
2023-01-17T19:06:31.361Z,15.95
2023-01-17T19:08:58.553Z,19.65
2023-01-17T19:11:26.824Z,17.50
2023-01-17T19:13:53.787Z,15.13
2023-01-17T19:16:27.843Z,16.52
2023-01-17T19:18:56.394Z,15.88
2023-01-17T19:21:26.098Z,16.33
2023-01-17T19:23:54.009Z,18.23
2023-01-17T19:26:22.730Z,16.17
2023-01-17T19:28:50.210Z,16.42
2023-01-17T19:31:20.371Z,15.10
2023-01-17T19:33:48.330Z,16.35
2023-01-17T19:36:21.044Z,16.73
2023-01-17T19:39:03.113Z,17.02
2023-01-17T19:41:31.198Z,17.10
2023-01-17T19:44:00.407Z,17.17
2023-01-17T19:46:27.973Z,18.25
2023-01-17T19:48:56.141Z,18.75
2023-01-17T19:51:23.454Z,18.33
2023-01-17T19:53:50.175Z,18.50
2023-01-17T19:56:19.134Z,20.38
2023-01-17T19:58:46.575Z,18.27
2023-01-17T20:01:22.260Z,17.90
2023-01-17T20:03:50.167Z,21.15
2023-01-17T20:06:22.413Z,18.15
2023-01-17T20:08:49.027Z,19.60
2023-01-17T20:11:19.082Z,20.65
2023-01-17T20:13:46.649Z,30.20
2023-01-17T20:16:15.031Z,24.63
2023-01-17T20:18:41.842Z,26.25
2023-01-17T20:21:26.032Z,23.77
2023-01-17T20:26:25.360Z,31.63
2023-01-17T20:28:52.106Z,29.38
2023-01-17T20:31:23.797Z,26.65
2023-01-17T20:33:54.034Z,25.83
2023-01-17T20:36:22.834Z,26.88
2023-01-17T20:38:49.698Z,22.48
2023-01-17T20:41:22.056Z,23.90
2023-01-17T20:43:51.055Z,25.50
2023-01-17T20:46:19.171Z,24.95
2023-01-17T20:48:48.161Z,25.52
2023-01-17T20:51:15.407Z,21.45
2023-01-17T20:53:43.416Z,22.63
2023-01-17T20:56:14.312Z,18.98
2023-01-17T20:58:41.802Z,23.27
2023-01-17T21:01:10.464Z,21.63
2023-01-17T21:03:38.782Z,19.67
2023-01-17T21:06:07.649Z,26.33
2023-01-17T21:08:36.518Z,20.40
2023-01-17T21:11:03.754Z,19.48
2023-01-17T21:13:31.535Z,21.75
2023-01-17T21:15:58.910Z,22.60
2023-01-17T21:18:26.932Z,20.85
2023-01-17T21:20:53.412Z,21.35
2023-01-17T21:23:20.368Z,21.30
2023-01-17T21:25:55.407Z,23.02
2023-01-17T21:28:26.846Z,24.60
2023-01-17T21:30:54.147Z,22.02
2023-01-17T21:33:21.995Z,24.15
2023-01-17T21:35:48.716Z,24.23
2023-01-17T21:38:15.833Z,24.83
2023-01-17T21:40:43.707Z,24.13
2023-01-17T21:43:10.958Z,24.45
2023-01-17T21:45:38.530Z,25.42
2023-01-17T21:48:06.655Z,21.92
2023-01-17T21:50:34.064Z,27.10
2023-01-17T21:53:00.826Z,23.83
2023-01-17T21:55:45.974Z,23.90
2023-01-17T21:58:35.914Z,23.38
2023-01-17T22:01:15.960Z,25.83
2023-01-17T22:03:48.345Z,23.88
2023-01-17T22:06:14.782Z,27.35
2023-01-17T22:08:41.169Z,27.08
2023-01-17T22:11:13.132Z,26.42
2023-01-17T22:13:41.841Z,28.55
2023-01-17T22:16:12.029Z,27.40
2023-01-17T22:18:39.862Z,29.80
2023-01-17T22:21:28.271Z,28.38
2023-01-17T22:23:56.527Z,27.48
2023-01-17T22:26:29.125Z,28.52
2023-01-17T22:28:56.016Z,28.23
2023-01-17T22:31:25.061Z,30.50
2023-01-17T22:33:54.411Z,29.75
2023-01-17T22:36:20.848Z,27.50
2023-01-17T22:38:47.511Z,33.17
2023-01-17T22:41:16.662Z,28.88
2023-01-17T22:43:48.785Z,30.67
2023-01-17T22:46:18.736Z,30.35
2023-01-17T22:48:45.655Z,27.40
2023-01-17T22:51:15.480Z,28.52
2023-01-17T22:53:44.088Z,30.33
2023-01-17T22:56:14.540Z,29.00
2023-01-17T22:58:44.495Z,29.65
2023-01-17T23:01:15.932Z,28.33
2023-01-17T23:03:42.478Z,29.65
2023-01-17T23:06:18.985Z,32.75
2023-01-17T23:08:48.608Z,33.28
2023-01-17T23:11:46.065Z,28.90
2023-01-17T23:14:21.886Z,33.13
2023-01-17T23:17:09.615Z,32.00
2023-01-17T23:19:38.462Z,30.40
2023-01-17T23:22:20.488Z,32.15
2023-01-17T23:24:55.214Z,36.20
2023-01-17T23:27:47.487Z,33.92
2023-01-17T23:30:17.558Z,31.42
2023-01-17T23:32:47.237Z,31.63
2023-01-17T23:35:14.798Z,31.02
2023-01-17T23:37:59.793Z,33.25
2023-01-17T23:40:26.249Z,29.00
2023-01-17T23:43:11.131Z,30.83
2023-01-17T23:45:38.868Z,27.58
2023-01-17T23:48:09.824Z,28.38
2023-01-17T23:50:38.277Z,30.90
2023-01-17T23:53:08.102Z,27.27
2023-01-17T23:55:40.806Z,36.92
2023-01-17T23:58:10.072Z,31.50
